Arviat, Canada
Current Conditions -  °F | °C
As of 6:46 AM on Saturday 25 Oct 2014 (Local Time) from CYEK Reporting Station
Light Rain Light Rain  
Wind Chill: 22°   Ceiling: 800
Heat Index: 34°   Visibility: 7mi
Dew Point: 34°   Wind: 20mph
Humidity: 100%   Direction: 60°ENE
Pressure: 29.51"   Gusts: NA
Location:  61.12°N, 94.05°W
Report Text: CYEK 251146Z AUTO 06017KT 7SM -RA BKN008 OVC015 01/01 A2951 RMK SLP993
Loading
Personal Weather Stations






























Interactive Weather Map
Tropical Storm Tracking
New forecast layout! Learn more

10-Day Weather Forecast

Advertisements
Track Severe Weather on mobile